sensor_id;sensor_type;location;lat;lon;timestamp;P1;durP1;ratioP1;P2;durP2;ratioP2
21392;SDS011;10857;52.228;21.026;2022-09-09T00:04:38;13.10;;;7.43;;
21392;SDS011;10857;52.228;21.026;2022-09-09T00:10:01;12.27;;;7.50;;
21392;SDS011;10857;52.228;21.026;2022-09-09T00:15:20;13.18;;;7.38;;
21392;SDS011;10857;52.228;21.026;2022-09-09T00:17:59;14.15;;;7.88;;
21392;SDS011;10857;52.228;21.026;2022-09-09T00:23:24;16.45;;;7.78;;
21392;SDS011;10857;52.228;21.026;2022-09-09T00:26:09;15.25;;;7.93;;
21392;SDS011;10857;52.228;21.026;2022-09-09T00:28:47;15.18;;;7.57;;
21392;SDS011;10857;52.228;21.026;2022-09-09T00:31:27;16.23;;;7.80;;
21392;SDS011;10857;52.228;21.026;2022-09-09T00:33:59;13.50;;;7.72;;
21392;SDS011;10857;52.228;21.026;2022-09-09T00:36:43;14.55;;;8.65;;
21392;SDS011;10857;52.228;21.026;2022-09-09T00:39:27;15.57;;;8.40;;
21392;SDS011;10857;52.228;21.026;2022-09-09T00:42:20;12.90;;;7.75;;
21392;SDS011;10857;52.228;21.026;2022-09-09T00:48:10;15.75;;;8.65;;
21392;SDS011;10857;52.228;21.026;2022-09-09T00:56:00;14.35;;;8.55;;
21392;SDS011;10857;52.228;21.026;2022-09-09T00:58:56;14.00;;;8.57;;
21392;SDS011;10857;52.228;21.026;2022-09-09T01:01:45;17.45;;;9.20;;
21392;SDS011;10857;52.228;21.026;2022-09-09T01:04:19;16.98;;;9.20;;
21392;SDS011;10857;52.228;21.026;2022-09-09T01:06:56;15.88;;;8.82;;
21392;SDS011;10857;52.228;21.026;2022-09-09T01:09:32;16.85;;;9.27;;
21392;SDS011;10857;52.228;21.026;2022-09-09T01:12:26;14.60;;;8.45;;
21392;SDS011;10857;52.228;21.026;2022-09-09T01:15:01;15.27;;;8.95;;
21392;SDS011;10857;52.228;21.026;2022-09-09T01:20:49;16.60;;;8.77;;
21392;SDS011;10857;52.228;21.026;2022-09-09T01:26:39;15.05;;;9.05;;
21392;SDS011;10857;52.228;21.026;2022-09-09T01:29:16;14.38;;;9.13;;
21392;SDS011;10857;52.228;21.026;2022-09-09T01:34:23;17.52;;;9.55;;
21392;SDS011;10857;52.228;21.026;2022-09-09T01:37:02;17.52;;;9.10;;
21392;SDS011;10857;52.228;21.026;2022-09-09T01:39:32;15.63;;;9.32;;
21392;SDS011;10857;52.228;21.026;2022-09-09T01:42:04;16.92;;;9.25;;
21392;SDS011;10857;52.228;21.026;2022-09-09T01:44:34;14.85;;;8.98;;
21392;SDS011;10857;52.228;21.026;2022-09-09T01:47:04;16.00;;;8.68;;
21392;SDS011;10857;52.228;21.026;2022-09-09T01:49:32;19.98;;;9.23;;
21392;SDS011;10857;52.228;21.026;2022-09-09T01:52:09;17.98;;;9.25;;
21392;SDS011;10857;52.228;21.026;2022-09-09T01:54:37;17.50;;;9.95;;
21392;SDS011;10857;52.228;21.026;2022-09-09T01:57:29;14.23;;;9.38;;
21392;SDS011;10857;52.228;21.026;2022-09-09T02:00:03;16.38;;;9.65;;
21392;SDS011;10857;52.228;21.026;2022-09-09T02:05:55;15.60;;;10.00;;
21392;SDS011;10857;52.228;21.026;2022-09-09T02:08:43;16.42;;;9.57;;
21392;SDS011;10857;52.228;21.026;2022-09-09T02:11:18;17.33;;;9.65;;
21392;SDS011;10857;52.228;21.026;2022-09-09T02:14:02;19.35;;;10.38;;
21392;SDS011;10857;52.228;21.026;2022-09-09T02:20:01;17.23;;;10.00;;
21392;SDS011;10857;52.228;21.026;2022-09-09T02:22:43;16.35;;;9.75;;
21392;SDS011;10857;52.228;21.026;2022-09-09T02:25:18;15.48;;;9.80;;
21392;SDS011;10857;52.228;21.026;2022-09-09T02:27:50;16.40;;;9.93;;
21392;SDS011;10857;52.228;21.026;2022-09-09T02:30:18;16.60;;;10.50;;
21392;SDS011;10857;52.228;21.026;2022-09-09T02:32:52;18.00;;;10.18;;
21392;SDS011;10857;52.228;21.026;2022-09-09T02:35:52;18.10;;;10.52;;
21392;SDS011;10857;52.228;21.026;2022-09-09T02:38:29;17.45;;;9.40;;
21392;SDS011;10857;52.228;21.026;2022-09-09T02:41:07;15.73;;;10.27;;
21392;SDS011;10857;52.228;21.026;2022-09-09T02:43:35;16.98;;;10.18;;
21392;SDS011;10857;52.228;21.026;2022-09-09T02:51:36;17.08;;;10.15;;
21392;SDS011;10857;52.228;21.026;2022-09-09T02:54:30;17.60;;;10.98;;
21392;SDS011;10857;52.228;21.026;2022-09-09T02:57:13;17.90;;;11.00;;
21392;SDS011;10857;52.228;21.026;2022-09-09T02:59:50;16.90;;;10.95;;
21392;SDS011;10857;52.228;21.026;2022-09-09T03:02:18;19.13;;;10.65;;
21392;SDS011;10857;52.228;21.026;2022-09-09T03:04:53;16.13;;;10.20;;
21392;SDS011;10857;52.228;21.026;2022-09-09T03:07:20;18.15;;;10.70;;
21392;SDS011;10857;52.228;21.026;2022-09-09T03:09:49;18.85;;;11.27;;
21392;SDS011;10857;52.228;21.026;2022-09-09T03:12:17;19.73;;;11.32;;
21392;SDS011;10857;52.228;21.026;2022-09-09T03:14:43;19.25;;;11.50;;
21392;SDS011;10857;52.228;21.026;2022-09-09T03:17:13;19.67;;;11.73;;
21392;SDS011;10857;52.228;21.026;2022-09-09T03:19:47;16.73;;;11.00;;
21392;SDS011;10857;52.228;21.026;2022-09-09T03:22:16;19.50;;;11.38;;
21392;SDS011;10857;52.228;21.026;2022-09-09T03:24:44;16.58;;;11.30;;
21392;SDS011;10857;52.228;21.026;2022-09-09T03:27:13;17.77;;;11.68;;
21392;SDS011;10857;52.228;21.026;2022-09-09T03:29:44;19.85;;;11.05;;
21392;SDS011;10857;52.228;21.026;2022-09-09T03:32:16;21.43;;;11.80;;
21392;SDS011;10857;52.228;21.026;2022-09-09T03:34:45;18.93;;;11.67;;
21392;SDS011;10857;52.228;21.026;2022-09-09T03:37:16;16.58;;;10.27;;
21392;SDS011;10857;52.228;21.026;2022-09-09T03:39:44;15.55;;;10.48;;
21392;SDS011;10857;52.228;21.026;2022-09-09T03:42:13;16.95;;;11.02;;
21392;SDS011;10857;52.228;21.026;2022-09-09T03:44:47;15.77;;;10.50;;
21392;SDS011;10857;52.228;21.026;2022-09-09T03:47:21;18.10;;;11.23;;
21392;SDS011;10857;52.228;21.026;2022-09-09T03:49:54;16.83;;;11.10;;
21392;SDS011;10857;52.228;21.026;2022-09-09T03:52:21;15.35;;;10.20;;
21392;SDS011;10857;52.228;21.026;2022-09-09T03:54:53;15.25;;;10.07;;
21392;SDS011;10857;52.228;21.026;2022-09-09T03:57:20;17.42;;;10.32;;
21392;SDS011;10857;52.228;21.026;2022-09-09T03:59:49;18.05;;;10.80;;
21392;SDS011;10857;52.228;21.026;2022-09-09T04:02:16;16.25;;;10.23;;
21392;SDS011;10857;52.228;21.026;2022-09-09T04:04:43;15.63;;;10.05;;
21392;SDS011;10857;52.228;21.026;2022-09-09T04:07:10;15.57;;;10.25;;
21392;SDS011;10857;52.228;21.026;2022-09-09T04:09:38;14.55;;;9.82;;
21392;SDS011;10857;52.228;21.026;2022-09-09T04:12:05;16.50;;;9.70;;
21392;SDS011;10857;52.228;21.026;2022-09-09T04:14:33;14.15;;;9.75;;
21392;SDS011;10857;52.228;21.026;2022-09-09T04:17:02;14.52;;;9.77;;
21392;SDS011;10857;52.228;21.026;2022-09-09T04:19:32;17.23;;;9.70;;
21392;SDS011;10857;52.228;21.026;2022-09-09T04:22:00;13.57;;;9.63;;
21392;SDS011;10857;52.228;21.026;2022-09-09T04:24:27;12.30;;;9.20;;
21392;SDS011;10857;52.228;21.026;2022-09-09T04:26:58;14.95;;;9.07;;
21392;SDS011;10857;52.228;21.026;2022-09-09T04:29:25;15.20;;;9.48;;
21392;SDS011;10857;52.228;21.026;2022-09-09T04:31:52;14.07;;;9.60;;
21392;SDS011;10857;52.228;21.026;2022-09-09T04:34:19;13.68;;;9.25;;
21392;SDS011;10857;52.228;21.026;2022-09-09T04:36:46;13.05;;;8.70;;
21392;SDS011;10857;52.228;21.026;2022-09-09T04:39:13;13.27;;;8.73;;
21392;SDS011;10857;52.228;21.026;2022-09-09T04:41:40;15.50;;;8.75;;
21392;SDS011;10857;52.228;21.026;2022-09-09T04:44:09;12.82;;;8.27;;
21392;SDS011;10857;52.228;21.026;2022-09-09T04:46:39;10.00;;;7.93;;
21392;SDS011;10857;52.228;21.026;2022-09-09T04:49:09;12.65;;;8.70;;
21392;SDS011;10857;52.228;21.026;2022-09-09T04:51:41;11.15;;;8.13;;
21392;SDS011;10857;52.228;21.026;2022-09-09T04:54:09;11.02;;;7.85;;
21392;SDS011;10857;52.228;21.026;2022-09-09T04:56:41;14.27;;;8.10;;
21392;SDS011;10857;52.228;21.026;2022-09-09T04:59:10;12.13;;;8.15;;
21392;SDS011;10857;52.228;21.026;2022-09-09T05:01:46;12.43;;;7.80;;
21392;SDS011;10857;52.228;21.026;2022-09-09T05:04:13;10.43;;;7.57;;
21392;SDS011;10857;52.228;21.026;2022-09-09T05:06:43;10.68;;;7.97;;
21392;SDS011;10857;52.228;21.026;2022-09-09T05:09:11;11.57;;;7.95;;
21392;SDS011;10857;52.228;21.026;2022-09-09T05:11:38;12.77;;;7.35;;
21392;SDS011;10857;52.228;21.026;2022-09-09T05:14:11;10.25;;;7.75;;
21392;SDS011;10857;52.228;21.026;2022-09-09T05:16:44;10.88;;;7.57;;
21392;SDS011;10857;52.228;21.026;2022-09-09T05:19:15;12.60;;;7.43;;
21392;SDS011;10857;52.228;21.026;2022-09-09T05:21:50;9.43;;;7.35;;
21392;SDS011;10857;52.228;21.026;2022-09-09T05:24:31;11.93;;;7.72;;
21392;SDS011;10857;52.228;21.026;2022-09-09T05:27:01;12.40;;;7.15;;
21392;SDS011;10857;52.228;21.026;2022-09-09T05:29:28;8.63;;;6.60;;
21392;SDS011;10857;52.228;21.026;2022-09-09T05:31:57;12.20;;;7.18;;
21392;SDS011;10857;52.228;21.026;2022-09-09T05:34:25;11.82;;;7.28;;
21392;SDS011;10857;52.228;21.026;2022-09-09T05:36:52;10.48;;;7.10;;
21392;SDS011;10857;52.228;21.026;2022-09-09T05:39:24;9.15;;;6.55;;
21392;SDS011;10857;52.228;21.026;2022-09-09T05:41:51;11.13;;;7.25;;
21392;SDS011;10857;52.228;21.026;2022-09-09T05:44:18;11.00;;;6.82;;
21392;SDS011;10857;52.228;21.026;2022-09-09T05:46:45;8.68;;;7.07;;
21392;SDS011;10857;52.228;21.026;2022-09-09T05:49:14;10.85;;;6.88;;
21392;SDS011;10857;52.228;21.026;2022-09-09T05:51:43;12.13;;;7.70;;
21392;SDS011;10857;52.228;21.026;2022-09-09T05:54:13;8.98;;;6.82;;
21392;SDS011;10857;52.228;21.026;2022-09-09T05:56:46;10.88;;;7.80;;
21392;SDS011;10857;52.228;21.026;2022-09-09T05:59:18;8.23;;;7.03;;
21392;SDS011;10857;52.228;21.026;2022-09-09T06:01:46;8.68;;;7.00;;
21392;SDS011;10857;52.228;21.026;2022-09-09T06:04:20;9.70;;;6.95;;
21392;SDS011;10857;52.228;21.026;2022-09-09T06:06:51;9.20;;;7.20;;
21392;SDS011;10857;52.228;21.026;2022-09-09T06:09:23;8.95;;;7.10;;
21392;SDS011;10857;52.228;21.026;2022-09-09T06:11:51;10.48;;;7.45;;
21392;SDS011;10857;52.228;21.026;2022-09-09T06:14:20;8.40;;;7.00;;
21392;SDS011;10857;52.228;21.026;2022-09-09T06:16:50;9.07;;;7.10;;
21392;SDS011;10857;52.228;21.026;2022-09-09T06:19:20;9.77;;;7.25;;
21392;SDS011;10857;52.228;21.026;2022-09-09T06:21:47;9.35;;;7.28;;
21392;SDS011;10857;52.228;21.026;2022-09-09T06:24:15;10.38;;;7.28;;
21392;SDS011;10857;52.228;21.026;2022-09-09T06:26:43;8.98;;;7.18;;
21392;SDS011;10857;52.228;21.026;2022-09-09T06:29:17;9.23;;;7.00;;
21392;SDS011;10857;52.228;21.026;2022-09-09T06:31:44;9.18;;;7.30;;
21392;SDS011;10857;52.228;21.026;2022-09-09T06:34:14;10.40;;;7.20;;
21392;SDS011;10857;52.228;21.026;2022-09-09T06:36:46;10.27;;;7.85;;
21392;SDS011;10857;52.228;21.026;2022-09-09T06:39:13;10.45;;;8.00;;
21392;SDS011;10857;52.228;21.026;2022-09-09T06:41:42;10.45;;;7.82;;
21392;SDS011;10857;52.228;21.026;2022-09-09T06:44:41;10.85;;;8.10;;
21392;SDS011;10857;52.228;21.026;2022-09-09T06:47:14;12.20;;;8.52;;
21392;SDS011;10857;52.228;21.026;2022-09-09T06:49:42;9.95;;;7.45;;
21392;SDS011;10857;52.228;21.026;2022-09-09T06:52:13;10.65;;;8.30;;
21392;SDS011;10857;52.228;21.026;2022-09-09T06:54:42;14.07;;;9.70;;
21392;SDS011;10857;52.228;21.026;2022-09-09T06:57:09;12.80;;;9.50;;
21392;SDS011;10857;52.228;21.026;2022-09-09T06:59:56;10.55;;;8.48;;
21392;SDS011;10857;52.228;21.026;2022-09-09T07:02:26;10.75;;;9.20;;
21392;SDS011;10857;52.228;21.026;2022-09-09T07:04:53;12.63;;;9.20;;
21392;SDS011;10857;52.228;21.026;2022-09-09T07:07:20;11.40;;;8.95;;
21392;SDS011;10857;52.228;21.026;2022-09-09T07:09:48;12.35;;;9.13;;
21392;SDS011;10857;52.228;21.026;2022-09-09T07:12:15;13.02;;;9.13;;
21392;SDS011;10857;52.228;21.026;2022-09-09T07:14:50;13.68;;;10.30;;
21392;SDS011;10857;52.228;21.026;2022-09-09T07:17:17;14.30;;;10.35;;
21392;SDS011;10857;52.228;21.026;2022-09-09T07:19:45;12.52;;;9.82;;
21392;SDS011;10857;52.228;21.026;2022-09-09T07:22:14;13.32;;;10.13;;
21392;SDS011;10857;52.228;21.026;2022-09-09T07:24:42;13.85;;;10.10;;
21392;SDS011;10857;52.228;21.026;2022-09-09T07:27:13;13.57;;;10.48;;
21392;SDS011;10857;52.228;21.026;2022-09-09T07:29:40;13.73;;;10.57;;
21392;SDS011;10857;52.228;21.026;2022-09-09T07:32:08;14.38;;;10.27;;
21392;SDS011;10857;52.228;21.026;2022-09-09T07:34:36;15.32;;;10.65;;
21392;SDS011;10857;52.228;21.026;2022-09-09T07:37:04;15.10;;;10.73;;
21392;SDS011;10857;52.228;21.026;2022-09-09T07:39:32;16.17;;;11.52;;
21392;SDS011;10857;52.228;21.026;2022-09-09T07:42:00;15.27;;;11.68;;
21392;SDS011;10857;52.228;21.026;2022-09-09T07:44:29;16.85;;;11.00;;
21392;SDS011;10857;52.228;21.026;2022-09-09T07:47:09;18.77;;;11.90;;
21392;SDS011;10857;52.228;21.026;2022-09-09T07:49:41;16.73;;;12.23;;
21392;SDS011;10857;52.228;21.026;2022-09-09T07:52:08;17.90;;;12.60;;
21392;SDS011;10857;52.228;21.026;2022-09-09T07:54:44;17.40;;;11.90;;
21392;SDS011;10857;52.228;21.026;2022-09-09T07:57:13;16.52;;;11.75;;
21392;SDS011;10857;52.228;21.026;2022-09-09T07:59:46;17.83;;;12.18;;
21392;SDS011;10857;52.228;21.026;2022-09-09T08:02:17;19.00;;;12.75;;
21392;SDS011;10857;52.228;21.026;2022-09-09T08:04:44;19.95;;;12.73;;
21392;SDS011;10857;52.228;21.026;2022-09-09T08:07:16;16.85;;;12.13;;
21392;SDS011;10857;52.228;21.026;2022-09-09T08:09:50;18.40;;;12.50;;
21392;SDS011;10857;52.228;21.026;2022-09-09T08:12:23;15.00;;;11.55;;
21392;SDS011;10857;52.228;21.026;2022-09-09T08:14:50;18.67;;;12.80;;
21392;SDS011;10857;52.228;21.026;2022-09-09T08:17:22;19.90;;;12.93;;
21392;SDS011;10857;52.228;21.026;2022-09-09T08:19:50;19.65;;;12.32;;
21392;SDS011;10857;52.228;21.026;2022-09-09T08:22:21;20.40;;;14.48;;
21392;SDS011;10857;52.228;21.026;2022-09-09T08:24:50;22.33;;;13.80;;
21392;SDS011;10857;52.228;21.026;2022-09-09T08:27:22;20.13;;;13.13;;
21392;SDS011;10857;52.228;21.026;2022-09-09T08:29:51;19.20;;;13.70;;
21392;SDS011;10857;52.228;21.026;2022-09-09T08:32:24;18.95;;;13.23;;
21392;SDS011;10857;52.228;21.026;2022-09-09T08:34:51;18.90;;;13.35;;
21392;SDS011;10857;52.228;21.026;2022-09-09T08:37:21;19.45;;;13.90;;
21392;SDS011;10857;52.228;21.026;2022-09-09T08:39:49;18.75;;;14.23;;
21392;SDS011;10857;52.228;21.026;2022-09-09T08:42:25;22.77;;;14.98;;
21392;SDS011;10857;52.228;21.026;2022-09-09T08:51:36;23.17;;;15.20;;
21392;SDS011;10857;52.228;21.026;2022-09-09T08:54:07;22.45;;;15.45;;
21392;SDS011;10857;52.228;21.026;2022-09-09T08:56:36;20.80;;;15.10;;
21392;SDS011;10857;52.228;21.026;2022-09-09T08:59:07;21.05;;;14.63;;
21392;SDS011;10857;52.228;21.026;2022-09-09T09:10:04;25.20;;;17.13;;
21392;SDS011;10857;52.228;21.026;2022-09-09T09:13:18;24.55;;;17.20;;
21392;SDS011;10857;52.228;21.026;2022-09-09T09:18:47;26.67;;;18.48;;
21392;SDS011;10857;52.228;21.026;2022-09-09T09:24:12;27.15;;;18.40;;
21392;SDS011;10857;52.228;21.026;2022-09-09T09:26:59;27.95;;;19.05;;
21392;SDS011;10857;52.228;21.026;2022-09-09T09:29:45;29.63;;;18.55;;
21392;SDS011;10857;52.228;21.026;2022-09-09T09:32:36;29.27;;;18.63;;
21392;SDS011;10857;52.228;21.026;2022-09-09T09:35:12;30.67;;;18.70;;
21392;SDS011;10857;52.228;21.026;2022-09-09T09:37:41;30.67;;;18.63;;
21392;SDS011;10857;52.228;21.026;2022-09-09T09:40:37;27.55;;;18.10;;
21392;SDS011;10857;52.228;21.026;2022-09-09T09:43:33;25.73;;;17.65;;
21392;SDS011;10857;52.228;21.026;2022-09-09T09:46:21;27.85;;;18.75;;
21392;SDS011;10857;52.228;21.026;2022-09-09T09:48:57;23.73;;;17.60;;
21392;SDS011;10857;52.228;21.026;2022-09-09T09:51:30;27.08;;;18.38;;
21392;SDS011;10857;52.228;21.026;2022-09-09T09:59:43;29.65;;;19.40;;
21392;SDS011;10857;52.228;21.026;2022-09-09T10:02:24;28.02;;;19.05;;
21392;SDS011;10857;52.228;21.026;2022-09-09T10:05:05;27.33;;;18.80;;
21392;SDS011;10857;52.228;21.026;2022-09-09T10:07:59;29.40;;;19.80;;
21392;SDS011;10857;52.228;21.026;2022-09-09T10:16:57;32.30;;;19.90;;
21392;SDS011;10857;52.228;21.026;2022-09-09T10:19:40;29.85;;;20.05;;
21392;SDS011;10857;52.228;21.026;2022-09-09T10:31:12;35.33;;;23.63;;
21392;SDS011;10857;52.228;21.026;2022-09-09T10:36:48;39.45;;;24.20;;
21392;SDS011;10857;52.228;21.026;2022-09-09T10:39:22;40.05;;;24.40;;
21392;SDS011;10857;52.228;21.026;2022-09-09T10:42:14;37.13;;;24.90;;
21392;SDS011;10857;52.228;21.026;2022-09-09T10:55:55;38.92;;;25.60;;
21392;SDS011;10857;52.228;21.026;2022-09-09T11:01:00;41.08;;;26.15;;
21392;SDS011;10857;52.228;21.026;2022-09-09T11:03:34;42.63;;;28.95;;
21392;SDS011;10857;52.228;21.026;2022-09-09T11:06:17;44.33;;;29.38;;
21392;SDS011;10857;52.228;21.026;2022-09-09T11:08:48;43.10;;;29.40;;
21392;SDS011;10857;52.228;21.026;2022-09-09T11:11:25;39.67;;;26.25;;
21392;SDS011;10857;52.228;21.026;2022-09-09T11:14:18;43.47;;;28.10;;
21392;SDS011;10857;52.228;21.026;2022-09-09T11:17:21;43.13;;;29.42;;
21392;SDS011;10857;52.228;21.026;2022-09-09T11:19:51;41.80;;;28.10;;
21392;SDS011;10857;52.228;21.026;2022-09-09T11:22:25;41.72;;;27.13;;
21392;SDS011;10857;52.228;21.026;2022-09-09T11:27:25;41.30;;;27.20;;
21392;SDS011;10857;52.228;21.026;2022-09-09T11:30:12;40.15;;;27.23;;
21392;SDS011;10857;52.228;21.026;2022-09-09T11:36:05;44.83;;;26.75;;
21392;SDS011;10857;52.228;21.026;2022-09-09T11:38:46;41.03;;;26.58;;
21392;SDS011;10857;52.228;21.026;2022-09-09T11:41:23;43.65;;;26.98;;
21392;SDS011;10857;52.228;21.026;2022-09-09T11:44:12;42.22;;;27.58;;
21392;SDS011;10857;52.228;21.026;2022-09-09T11:46:48;40.10;;;26.48;;
21392;SDS011;10857;52.228;21.026;2022-09-09T11:49:28;42.90;;;27.42;;
21392;SDS011;10857;52.228;21.026;2022-09-09T11:52:22;44.80;;;27.98;;
21392;SDS011;10857;52.228;21.026;2022-09-09T11:55:10;44.55;;;27.98;;
21392;SDS011;10857;52.228;21.026;2022-09-09T11:58:01;45.90;;;27.83;;
21392;SDS011;10857;52.228;21.026;2022-09-09T12:00:52;51.08;;;29.67;;
21392;SDS011;10857;52.228;21.026;2022-09-09T12:03:41;47.08;;;29.52;;
21392;SDS011;10857;52.228;21.026;2022-09-09T12:06:28;47.55;;;28.92;;
21392;SDS011;10857;52.228;21.026;2022-09-09T12:09:07;46.17;;;28.95;;
21392;SDS011;10857;52.228;21.026;2022-09-09T12:14:55;50.85;;;30.17;;
21392;SDS011;10857;52.228;21.026;2022-09-09T12:17:46;57.38;;;36.13;;
21392;SDS011;10857;52.228;21.026;2022-09-09T12:20:21;51.33;;;30.45;;
21392;SDS011;10857;52.228;21.026;2022-09-09T12:34:54;52.58;;;31.10;;
21392;SDS011;10857;52.228;21.026;2022-09-09T12:40:26;58.10;;;31.98;;
21392;SDS011;10857;52.228;21.026;2022-09-09T12:42:58;55.33;;;32.67;;
21392;SDS011;10857;52.228;21.026;2022-09-09T12:45:33;52.80;;;30.30;;
21392;SDS011;10857;52.228;21.026;2022-09-09T12:48:07;50.65;;;31.95;;
21392;SDS011;10857;52.228;21.026;2022-09-09T12:50:50;58.08;;;32.30;;
21392;SDS011;10857;52.228;21.026;2022-09-09T12:53:33;52.53;;;31.33;;
21392;SDS011;10857;52.228;21.026;2022-09-09T12:56:09;54.33;;;31.08;;
21392;SDS011;10857;52.228;21.026;2022-09-09T12:58:56;53.33;;;31.75;;
21392;SDS011;10857;52.228;21.026;2022-09-09T13:01:29;56.38;;;32.38;;
21392;SDS011;10857;52.228;21.026;2022-09-09T13:04:18;54.13;;;32.47;;
21392;SDS011;10857;52.228;21.026;2022-09-09T13:07:04;59.38;;;33.97;;
21392;SDS011;10857;52.228;21.026;2022-09-09T13:09:36;60.67;;;32.78;;
21392;SDS011;10857;52.228;21.026;2022-09-09T13:12:10;55.20;;;31.08;;
21392;SDS011;10857;52.228;21.026;2022-09-09T13:14:52;54.40;;;31.67;;
21392;SDS011;10857;52.228;21.026;2022-09-09T13:17:25;56.72;;;32.95;;
21392;SDS011;10857;52.228;21.026;2022-09-09T13:19:56;60.03;;;33.53;;
21392;SDS011;10857;52.228;21.026;2022-09-09T13:27:40;61.63;;;33.40;;
21392;SDS011;10857;52.228;21.026;2022-09-09T13:30:31;55.55;;;32.28;;
21392;SDS011;10857;52.228;21.026;2022-09-09T13:38:20;56.08;;;30.98;;
21392;SDS011;10857;52.228;21.026;2022-09-09T13:40:53;61.70;;;30.98;;
21392;SDS011;10857;52.228;21.026;2022-09-09T13:43:31;55.85;;;31.20;;
21392;SDS011;10857;52.228;21.026;2022-09-09T13:46:28;53.60;;;28.90;;
21392;SDS011;10857;52.228;21.026;2022-09-09T13:48:59;58.30;;;30.92;;
21392;SDS011;10857;52.228;21.026;2022-09-09T13:51:42;60.80;;;31.33;;
21392;SDS011;10857;52.228;21.026;2022-09-09T13:54:34;60.22;;;31.45;;
21392;SDS011;10857;52.228;21.026;2022-09-09T13:57:17;55.33;;;29.13;;
21392;SDS011;10857;52.228;21.026;2022-09-09T14:02:50;52.83;;;27.58;;
21392;SDS011;10857;52.228;21.026;2022-09-09T14:05:18;49.85;;;27.63;;
21392;SDS011;10857;52.228;21.026;2022-09-09T14:07:49;48.75;;;27.63;;
21392;SDS011;10857;52.228;21.026;2022-09-09T14:10:20;57.17;;;28.45;;
21392;SDS011;10857;52.228;21.026;2022-09-09T14:12:51;59.63;;;29.05;;
21392;SDS011;10857;52.228;21.026;2022-09-09T14:15:19;52.83;;;28.63;;
21392;SDS011;10857;52.228;21.026;2022-09-09T14:17:48;52.65;;;27.85;;
21392;SDS011;10857;52.228;21.026;2022-09-09T14:20:23;56.28;;;29.80;;
21392;SDS011;10857;52.228;21.026;2022-09-09T14:22:56;52.38;;;27.52;;
21392;SDS011;10857;52.228;21.026;2022-09-09T14:25:34;55.42;;;28.58;;
21392;SDS011;10857;52.228;21.026;2022-09-09T14:28:07;51.97;;;28.40;;
21392;SDS011;10857;52.228;21.026;2022-09-09T14:30:50;54.20;;;27.98;;
21392;SDS011;10857;52.228;21.026;2022-09-09T14:33:33;50.58;;;27.30;;
21392;SDS011;10857;52.228;21.026;2022-09-09T14:36:10;53.65;;;27.30;;
21392;SDS011;10857;52.228;21.026;2022-09-09T14:38:41;55.42;;;28.67;;
21392;SDS011;10857;52.228;21.026;2022-09-09T14:41:28;58.00;;;27.83;;
21392;SDS011;10857;52.228;21.026;2022-09-09T14:43:58;56.75;;;28.42;;
21392;SDS011;10857;52.228;21.026;2022-09-09T14:46:26;55.70;;;30.60;;
21392;SDS011;10857;52.228;21.026;2022-09-09T14:48:53;56.63;;;29.33;;
21392;SDS011;10857;52.228;21.026;2022-09-09T14:51:34;59.22;;;30.15;;
21392;SDS011;10857;52.228;21.026;2022-09-09T14:54:10;58.10;;;29.08;;
21392;SDS011;10857;52.228;21.026;2022-09-09T14:56:40;56.88;;;30.27;;
21392;SDS011;10857;52.228;21.026;2022-09-09T14:59:07;53.67;;;29.15;;
21392;SDS011;10857;52.228;21.026;2022-09-09T15:01:35;54.13;;;28.90;;
21392;SDS011;10857;52.228;21.026;2022-09-09T15:04:11;50.78;;;28.70;;
21392;SDS011;10857;52.228;21.026;2022-09-09T15:06:53;55.70;;;30.13;;
21392;SDS011;10857;52.228;21.026;2022-09-09T15:09:20;55.35;;;28.25;;
21392;SDS011;10857;52.228;21.026;2022-09-09T15:11:51;52.17;;;28.50;;
21392;SDS011;10857;52.228;21.026;2022-09-09T15:14:32;57.55;;;29.90;;
21392;SDS011;10857;52.228;21.026;2022-09-09T15:16:59;52.78;;;28.83;;
21392;SDS011;10857;52.228;21.026;2022-09-09T15:19:29;52.75;;;29.08;;
21392;SDS011;10857;52.228;21.026;2022-09-09T15:21:59;53.97;;;29.10;;
21392;SDS011;10857;52.228;21.026;2022-09-09T15:24:26;56.75;;;30.58;;
21392;SDS011;10857;52.228;21.026;2022-09-09T15:26:54;56.97;;;29.90;;
21392;SDS011;10857;52.228;21.026;2022-09-09T15:29:28;52.67;;;29.08;;
21392;SDS011;10857;52.228;21.026;2022-09-09T15:31:56;54.08;;;28.95;;
21392;SDS011;10857;52.228;21.026;2022-09-09T15:34:27;52.05;;;29.00;;
21392;SDS011;10857;52.228;21.026;2022-09-09T15:36:57;57.20;;;30.75;;
21392;SDS011;10857;52.228;21.026;2022-09-09T15:39:29;54.30;;;29.73;;
21392;SDS011;10857;52.228;21.026;2022-09-09T15:42:03;54.72;;;29.90;;
21392;SDS011;10857;52.228;21.026;2022-09-09T15:44:37;53.47;;;30.05;;
21392;SDS011;10857;52.228;21.026;2022-09-09T15:47:06;53.28;;;29.25;;
21392;SDS011;10857;52.228;21.026;2022-09-09T15:49:34;54.15;;;29.90;;
21392;SDS011;10857;52.228;21.026;2022-09-09T15:52:09;53.75;;;29.83;;
21392;SDS011;10857;52.228;21.026;2022-09-09T15:54:37;57.13;;;29.23;;
21392;SDS011;10857;52.228;21.026;2022-09-09T15:57:10;50.60;;;29.50;;
21392;SDS011;10857;52.228;21.026;2022-09-09T15:59:43;50.67;;;29.10;;
21392;SDS011;10857;52.228;21.026;2022-09-09T16:02:14;50.20;;;28.95;;
21392;SDS011;10857;52.228;21.026;2022-09-09T16:04:59;48.10;;;28.30;;
21392;SDS011;10857;52.228;21.026;2022-09-09T16:07:29;47.05;;;29.10;;
21392;SDS011;10857;52.228;21.026;2022-09-09T16:09:56;49.10;;;28.85;;
21392;SDS011;10857;52.228;21.026;2022-09-09T16:12:24;48.83;;;29.52;;
21392;SDS011;10857;52.228;21.026;2022-09-09T16:14:55;48.42;;;28.58;;
21392;SDS011;10857;52.228;21.026;2022-09-09T16:17:24;46.75;;;27.88;;
21392;SDS011;10857;52.228;21.026;2022-09-09T16:19:52;49.92;;;29.40;;
21392;SDS011;10857;52.228;21.026;2022-09-09T16:22:25;47.28;;;28.08;;
21392;SDS011;10857;52.228;21.026;2022-09-09T16:24:54;46.85;;;28.45;;
21392;SDS011;10857;52.228;21.026;2022-09-09T16:27:36;47.10;;;28.02;;
21392;SDS011;10857;52.228;21.026;2022-09-09T16:30:15;47.65;;;27.42;;
21392;SDS011;10857;52.228;21.026;2022-09-09T16:32:44;45.65;;;27.20;;
21392;SDS011;10857;52.228;21.026;2022-09-09T16:35:19;52.97;;;28.00;;
21392;SDS011;10857;52.228;21.026;2022-09-09T16:37:51;49.80;;;28.58;;
21392;SDS011;10857;52.228;21.026;2022-09-09T16:40:19;43.17;;;27.45;;
21392;SDS011;10857;52.228;21.026;2022-09-09T16:42:48;46.65;;;27.63;;
21392;SDS011;10857;52.228;21.026;2022-09-09T16:45:14;46.25;;;27.55;;
21392;SDS011;10857;52.228;21.026;2022-09-09T16:47:43;45.20;;;26.98;;
21392;SDS011;10857;52.228;21.026;2022-09-09T16:50:15;45.50;;;26.98;;
21392;SDS011;10857;52.228;21.026;2022-09-09T16:52:46;45.20;;;27.05;;
21392;SDS011;10857;52.228;21.026;2022-09-09T16:55:16;53.20;;;28.52;;
21392;SDS011;10857;52.228;21.026;2022-09-09T16:57:46;47.97;;;28.13;;
21392;SDS011;10857;52.228;21.026;2022-09-09T17:03:03;45.30;;;27.63;;
21392;SDS011;10857;52.228;21.026;2022-09-09T17:05:32;47.20;;;28.13;;
21392;SDS011;10857;52.228;21.026;2022-09-09T17:08:02;47.03;;;27.83;;
21392;SDS011;10857;52.228;21.026;2022-09-09T17:10:29;51.25;;;29.20;;
21392;SDS011;10857;52.228;21.026;2022-09-09T17:12:56;45.92;;;27.27;;